Time,TemperatureF,DewpointF,PressureIn,WindDirection,WindDirectionDegrees,WindSpeedMPH,WindSpeedGustMPH,Humidity,HourlyPrecipIn,Conditions,Clouds,dailyrainin,SoftwareType,DateUTC
2013-06-24 00:02:00,76.0,74.0,30.11,ESE,114,0.0,0.0,92,0.00,,,0.78,,2013-06-24 04:02:00,
2013-06-24 00:12:00,76.0,74.0,30.10,ESE,114,0.0,0.0,92,0.00,,,0.78,,2013-06-24 04:12:00,
2013-06-24 00:22:00,76.0,74.0,30.10,ESE,114,0.0,0.0,92,0.00,,,0.78,,2013-06-24 04:22:00,
2013-06-24 00:33:00,76.0,74.0,30.10,ESE,114,0.0,0.0,92,0.00,,,0.78,,2013-06-24 04:33:00,
2013-06-24 00:43:00,76.0,74.0,30.10,ESE,114,0.0,0.0,93,0.00,,,0.78,,2013-06-24 04:43:00,
2013-06-24 00:52:00,76.0,74.0,30.10,ESE,114,0.0,0.0,93,0.00,,,0.78,,2013-06-24 04:52:00,
2013-06-24 01:02:00,76.0,74.0,30.09,ESE,114,0.0,0.0,93,0.00,,,0.78,,2013-06-24 05:02:00,
2013-06-24 01:12:00,76.0,74.0,30.09,ESE,114,0.0,0.0,93,0.00,,,0.78,,2013-06-24 05:12:00,
2013-06-24 01:22:00,76.0,74.0,30.09,ENE,61,0.0,0.0,93,0.00,,,0.78,,2013-06-24 05:22:00,
2013-06-24 01:36:00,76.0,74.0,30.09,ESE,105,0.0,1.0,93,0.00,,,0.78,,2013-06-24 05:36:00,
2013-06-24 01:46:00,76.0,74.0,30.09,ESE,105,0.0,0.0,92,0.00,,,0.78,,2013-06-24 05:46:00,
2013-06-24 01:53:00,76.0,74.0,30.09,NE,37,0.0,0.0,92,0.00,,,0.78,,2013-06-24 05:53:00,
2013-06-24 02:08:00,76.0,74.0,30.09,NE,56,0.0,0.0,93,0.00,,,0.78,,2013-06-24 06:08:00,
2013-06-24 02:24:00,76.0,74.0,30.09,ENE,58,0.0,0.0,92,0.00,,,0.78,,2013-06-24 06:24:00,
2013-06-24 02:45:00,76.0,74.0,30.09,ENE,58,0.0,0.0,92,0.00,,,0.78,,2013-06-24 06:45:00,
2013-06-24 02:52:00,76.0,74.0,30.08,ENE,58,0.0,0.0,93,0.00,,,0.78,,2013-06-24 06:52:00,
2013-06-24 03:05:00,76.0,74.0,30.09,ENE,58,0.0,0.0,93,0.00,,,0.78,,2013-06-24 07:05:00,
2013-06-24 03:14:00,76.0,74.0,30.08,ENE,58,0.0,0.0,93,0.00,,,0.78,,2013-06-24 07:14:00,
2013-06-24 03:29:00,76.0,74.0,30.08,ENE,58,0.0,0.0,93,0.00,,,0.78,,2013-06-24 07:29:00,
2013-06-24 03:37:00,76.0,74.0,30.08,ESE,113,0.0,0.0,93,0.00,,,0.78,,2013-06-24 07:37:00,
2013-06-24 03:54:00,76.0,74.0,30.08,East,85,0.0,0.0,93,0.00,,,0.78,,2013-06-24 07:54:00,
2013-06-24 04:04:00,76.0,74.0,30.08,ESE,123,0.0,0.0,93,0.00,,,0.78,,2013-06-24 08:04:00,
2013-06-24 04:14:00,76.0,74.0,30.08,ESE,117,0.0,0.0,93,0.00,,,0.78,,2013-06-24 08:14:00,
2013-06-24 04:26:00,76.0,74.0,30.08,SE,132,0.0,2.0,93,0.00,,,0.78,,2013-06-24 08:26:00,
2013-06-24 04:35:00,76.0,74.0,30.08,ESE,123,0.0,0.0,93,0.00,,,0.78,,2013-06-24 08:35:00,
2013-06-24 04:46:00,75.0,73.0,30.08,ESE,115,0.0,0.0,93,0.00,,,0.78,,2013-06-24 08:46:00,
2013-06-24 04:53:00,75.0,73.0,30.07,ESE,115,0.0,0.0,93,0.00,,,0.78,,2013-06-24 08:53:00,
2013-06-24 05:06:00,75.0,73.0,30.08,ESE,115,0.0,0.0,93,0.00,,,0.78,,2013-06-24 09:06:00,
2013-06-24 05:15:00,75.0,73.0,30.08,East,79,0.0,0.0,93,0.00,,,0.78,,2013-06-24 09:15:00,
2013-06-24 05:26:00,75.0,73.0,30.08,ESE,120,0.0,0.0,93,0.01,,,0.79,,2013-06-24 09:26:00,
2013-06-24 05:37:00,75.0,73.0,30.08,ESE,109,0.0,0.0,93,0.01,,,0.79,,2013-06-24 09:37:00,
2013-06-24 05:47:00,75.0,73.0,30.08,ESE,109,0.0,0.0,94,0.01,,,0.79,,2013-06-24 09:47:00,
2013-06-24 06:05:00,75.0,73.0,30.08,ENE,74,0.0,0.0,94,0.01,,,0.79,,2013-06-24 10:05:00,
2013-06-24 06:14:00,75.0,73.0,30.09,SSE,154,0.0,0.0,94,0.01,,,0.79,,2013-06-24 10:14:00,
2013-06-24 06:24:00,75.0,73.0,30.09,SSE,154,0.0,0.0,94,0.00,,,0.79,,2013-06-24 10:24:00,
2013-06-24 06:37:00,75.0,73.0,30.09,East,80,0.0,2.0,93,0.00,,,0.79,,2013-06-24 10:37:00,
2013-06-24 06:49:00,75.0,73.0,30.09,NE,41,0.0,0.0,93,0.00,,,0.79,,2013-06-24 10:49:00,
2013-06-24 06:54:00,75.0,73.0,30.10,ESE,113,0.0,0.0,94,0.00,,,0.79,,2013-06-24 10:54:00,
2013-06-24 07:03:00,75.0,73.0,30.10,ESE,113,0.0,0.0,94,0.00,,,0.79,,2013-06-24 11:03:00,
2013-06-24 07:15:00,75.0,73.0,30.10,ESE,113,0.0,0.0,94,0.00,,,0.79,,2013-06-24 11:15:00,
2013-06-24 07:29:00,75.0,73.0,30.10,ENE,68,0.0,0.0,94,0.00,,,0.79,,2013-06-24 11:29:00,
2013-06-24 07:34:00,75.0,73.0,30.10,East,81,0.0,0.0,94,0.00,,,0.79,,2013-06-24 11:34:00,
2013-06-24 07:46:00,75.0,73.0,30.11,ENE,57,0.0,0.0,94,0.00,,,0.79,,2013-06-24 11:46:00,
2013-06-24 07:56:00,75.0,73.0,30.11,ENE,57,0.0,0.0,94,0.00,,,0.79,,2013-06-24 11:56:00,
2013-06-24 08:16:00,76.0,74.0,30.12,NE,40,0.0,0.0,94,0.00,,,0.79,,2013-06-24 12:16:00,
2013-06-24 08:23:00,77.0,75.0,30.12,East,85,0.0,3.0,94,0.00,,,0.79,,2013-06-24 12:23:00,
2013-06-24 08:36:00,77.0,75.0,30.12,East,89,0.0,3.0,93,0.00,,,0.79,,2013-06-24 12:36:00,
2013-06-24 08:48:00,78.0,75.0,30.12,ESE,105,0.0,2.0,91,0.00,,,0.79,,2013-06-24 12:48:00,
2013-06-24 08:53:00,79.0,76.0,30.13,SE,133,1.0,4.0,90,0.00,,,0.79,,2013-06-24 12:53:00,
2013-06-24 09:06:00,79.0,76.0,30.13,NNE,32,0.0,4.0,90,0.00,,,0.79,,2013-06-24 13:06:00,
2013-06-24 10:37:00,84.0,77.0,30.14,ESE,117,2.0,6.0,79,0.00,,,0.79,,2013-06-24 14:37:00,
2013-06-24 10:45:00,85.0,76.0,30.14,ESE,117,3.0,10.0,74,0.00,,,0.79,,2013-06-24 14:45:00,
2013-06-24 11:54:00,87.0,75.0,30.15,ESE,119,3.0,8.0,68,0.00,,,0.79,,2013-06-24 15:54:00,
2013-06-24 13:35:00,89.0,74.0,30.12,ESE,118,3.0,8.0,62,0.00,,,0.79,,2013-06-24 17:35:00,
2013-06-24 14:46:00,92.0,74.0,30.09,NE,52,2.0,9.0,56,0.00,,,0.79,,2013-06-24 18:46:00,
2013-06-24 15:06:00,92.0,73.0,30.09,South,172,3.0,6.0,55,0.00,,,0.79,,2013-06-24 19:06:00,
2013-06-24 15:37:00,91.0,72.0,30.07,ESE,116,3.0,6.0,54,0.00,,,0.79,,2013-06-24 19:37:00,
2013-06-24 16:45:00,94.0,72.0,30.05,NE,47,3.0,8.0,49,0.00,,,0.73,,2013-06-24 20:45:00,
2013-06-24 17:46:00,93.0,74.0,30.03,North,350,2.0,5.0,55,0.00,,,0.22,,2013-06-24 21:46:00,
2013-06-24 17:53:00,93.0,71.0,30.03,SE,136,3.0,5.0,49,0.00,,,0.22,,2013-06-24 21:53:00,
2013-06-24 18:36:00,93.0,73.0,30.02,NNE,24,3.0,8.0,53,0.00,,,0.02,,2013-06-24 22:36:00,
2013-06-24 18:55:00,92.0,72.0,30.02,ESE,119,0.0,7.0,52,0.00,,,0.02,,2013-06-24 22:55:00,
2013-06-24 19:05:00,92.0,72.0,30.02,SSE,154,2.0,5.0,52,0.00,,,0.01,,2013-06-24 23:05:00,
2013-06-24 19:14:00,89.0,77.0,30.03,West,264,8.0,13.0,68,0.00,,,0.01,,2013-06-24 23:14:00,
2013-06-24 19:27:00,87.0,77.0,30.03,West,268,5.0,12.0,72,0.00,,,0.01,,2013-06-24 23:27:00,
2013-06-24 19:45:00,87.0,77.0,30.03,West,267,5.0,11.0,73,0.00,,,0.01,,2013-06-24 23:45:00,
2013-06-24 19:53:00,87.0,78.0,30.03,West,281,5.0,11.0,74,0.00,,,0.01,,2013-06-24 23:53:00,
2013-06-24 20:05:00,86.0,77.0,30.03,West,277,5.0,9.0,74,0.00,,,0.01,,2013-06-25 00:05:00,
2013-06-24 20:12:00,86.0,77.0,30.04,West,263,6.0,9.0,75,0.00,,,0.01,,2013-06-25 00:12:00,
2013-06-24 20:24:00,83.0,77.0,30.05,NW,322,7.0,10.0,83,0.34,,,0.35,,2013-06-25 00:24:00,
2013-06-24 20:34:00,81.0,75.0,30.05,East,94,1.0,8.0,83,0.52,,,0.53,,2013-06-25 00:34:00,
2013-06-24 20:46:00,80.0,75.0,30.04,SSW,197,0.0,3.0,85,0.53,,,0.54,,2013-06-25 00:46:00,
2013-06-24 20:54:00,80.0,76.0,30.04,NNE,32,0.0,2.0,87,0.53,,,0.54,,2013-06-25 00:54:00,
2013-06-24 21:04:00,80.0,76.0,30.05,South,178,2.0,5.0,88,0.53,,,0.54,,2013-06-25 01:04:00,
2013-06-24 22:36:00,79.0,75.0,30.07,ESE,113,0.0,0.0,87,0.00,,,0.54,,2013-06-25 02:36:00,